createdAt,value
2023-03-30T00:01:17.235Z,100004.63
2023-03-30T00:03:47.427Z,100026.84
2023-03-30T00:06:23.480Z,100023.97
2023-03-30T00:08:57.127Z,100025.88
2023-03-30T00:11:26.689Z,100018.91
2023-03-30T00:13:54.923Z,100016.22
2023-03-30T00:16:23.228Z,100007.09
2023-03-30T00:18:51.887Z,99987.47
2023-03-30T00:21:21.270Z,99995.50
2023-03-30T00:23:50.195Z,99980.50
2023-03-30T00:26:18.447Z,99991.88
2023-03-30T00:28:46.917Z,99991.78
2023-03-30T00:31:14.914Z,99978.38
2023-03-30T00:33:46.861Z,99985.56
2023-03-30T00:36:16.572Z,99976.66
2023-03-30T00:38:45.662Z,99970.34
2023-03-30T00:41:15.012Z,99969.56
2023-03-30T00:44:05.123Z,99973.31
2023-03-30T00:46:34.135Z,99975.59
2023-03-30T00:49:08.727Z,99984.59
2023-03-30T00:51:40.569Z,99978.66
2023-03-30T00:54:15.749Z,99975.13
2023-03-30T00:56:43.720Z,99984.50
2023-03-30T00:59:12.554Z,99978.63
2023-03-30T01:01:41.979Z,99967.16
2023-03-30T01:04:13.290Z,99982.25
2023-03-30T01:06:43.477Z,99977.88
2023-03-30T01:09:12.041Z,99981.31
2023-03-30T01:11:40.945Z,99975.19
2023-03-30T01:14:13.029Z,99979.34
2023-03-30T01:16:50.326Z,99971.88
2023-03-30T01:19:58.573Z,99962.75
2023-03-30T01:23:27.465Z,99947.31
2023-03-30T01:26:13.460Z,99955.63
2023-03-30T01:29:17.420Z,99965.50
2023-03-30T01:32:09.009Z,99963.78
2023-03-30T01:34:42.973Z,99951.13
2023-03-30T01:37:22.518Z,99962.41
2023-03-30T01:40:13.845Z,99958.53
2023-03-30T01:43:07.179Z,99971.66
2023-03-30T01:45:46.961Z,99960.66
2023-03-30T01:48:47.127Z,99971.88
2023-03-30T01:51:25.732Z,99975.22
2023-03-30T01:54:04.641Z,99989.13
2023-03-30T01:57:15.910Z,99992.44
2023-03-30T02:00:13.407Z,99974.44
2023-03-30T02:03:13.650Z,99972.06
2023-03-30T02:05:45.120Z,99961.22
2023-03-30T02:08:22.510Z,99963.50
2023-03-30T02:10:51.632Z,99964.94
2023-03-30T02:13:20.468Z,99963.22
2023-03-30T02:15:56.079Z,99973.06
2023-03-30T02:18:24.226Z,99959.16
2023-03-30T02:20:52.084Z,99960.47
2023-03-30T02:23:23.646Z,99952.00
2023-03-30T02:25:51.385Z,99944.53
2023-03-30T02:28:19.271Z,99947.13
2023-03-30T02:30:47.484Z,99946.72
2023-03-30T02:33:50.791Z,99939.03
2023-03-30T02:37:00.343Z,99943.63
2023-03-30T02:39:46.931Z,99941.50
2023-03-30T02:42:30.170Z,99917.13
2023-03-30T02:45:19.157Z,99888.34
2023-03-30T02:48:14.923Z,99909.81
2023-03-30T02:51:38.520Z,99912.50
2023-03-30T02:54:32.946Z,99902.53
2023-03-30T02:57:52.849Z,99907.91
2023-03-30T03:00:50.093Z,99909.19
2023-03-30T03:03:41.428Z,99917.97
2023-03-30T03:06:09.901Z,99927.75
2023-03-30T03:08:48.233Z,99917.78
2023-03-30T03:11:23.024Z,99922.28
2023-03-30T03:13:51.370Z,99916.28
2023-03-30T03:16:20.546Z,99935.50
2023-03-30T03:19:05.352Z,99954.19
2023-03-30T03:21:33.282Z,99950.66
2023-03-30T03:24:01.665Z,99931.78
2023-03-30T03:26:49.407Z,99925.44
2023-03-30T03:29:17.532Z,99911.78
2023-03-30T03:31:45.974Z,99890.72
2023-03-30T03:34:13.727Z,99895.66
2023-03-30T03:36:58.273Z,99889.53
2023-03-30T03:39:28.632Z,99892.22
2023-03-30T03:42:06.244Z,99873.41
2023-03-30T03:44:37.728Z,99874.28
2023-03-30T03:47:05.757Z,99870.84
2023-03-30T03:49:33.423Z,99870.84
2023-03-30T03:52:01.112Z,99876.31
2023-03-30T03:54:29.018Z,99882.66
2023-03-30T03:56:56.935Z,99870.19
2023-03-30T03:59:24.826Z,99865.88
2023-03-30T04:01:52.759Z,99860.41
2023-03-30T04:04:20.856Z,99860.63
2023-03-30T04:06:48.702Z,99849.44
2023-03-30T04:09:16.425Z,99840.00
2023-03-30T04:12:04.757Z,99840.31
2023-03-30T04:14:48.292Z,99829.03
2023-03-30T04:17:23.865Z,99824.38
2023-03-30T04:20:12.223Z,99812.53
2023-03-30T04:23:03.908Z,99808.88
2023-03-30T04:25:51.754Z,99796.44
2023-03-30T04:28:21.920Z,99828.84
2023-03-30T04:31:38.173Z,99836.88
2023-03-30T04:34:47.980Z,99828.94
2023-03-30T04:37:35.466Z,99831.84
2023-03-30T04:40:21.660Z,99838.28
2023-03-30T04:43:02.358Z,99840.22
2023-03-30T04:45:56.567Z,99830.53
2023-03-30T04:48:33.416Z,99826.13
2023-03-30T04:51:06.844Z,99794.34
2023-03-30T04:53:56.824Z,99789.19
2023-03-30T04:56:30.293Z,99781.56
2023-03-30T04:59:19.134Z,99774.47
2023-03-30T05:01:54.468Z,99761.38
2023-03-30T05:04:40.697Z,99777.22
2023-03-30T05:07:43.688Z,99770.28
2023-03-30T05:10:22.861Z,99779.91
2023-03-30T05:13:04.610Z,99789.03
2023-03-30T05:15:43.192Z,99776.25
2023-03-30T05:18:33.837Z,99784.41
2023-03-30T05:21:15.889Z,99805.84
2023-03-30T05:23:46.356Z,99808.84
2023-03-30T05:26:30.506Z,99844.31
2023-03-30T05:29:15.240Z,99873.03
2023-03-30T05:32:01.836Z,99886.72
2023-03-30T05:35:05.509Z,99934.53
2023-03-30T05:37:42.113Z,99959.50
2023-03-30T05:40:45.019Z,99969.56
2023-03-30T05:43:49.196Z,99994.47
2023-03-30T05:46:34.055Z,100003.66
2023-03-30T05:49:17.883Z,100003.28
2023-03-30T05:52:11.487Z,99996.88
2023-03-30T05:55:04.016Z,100005.66
2023-03-30T05:57:45.692Z,100002.88
2023-03-30T06:00:36.866Z,99997.44
2023-03-30T06:03:16.209Z,99995.44
2023-03-30T06:05:45.478Z,99992.53
2023-03-30T06:08:15.916Z,99996.94
2023-03-30T06:10:53.776Z,100012.75
2023-03-30T06:13:22.488Z,100020.22
2023-03-30T06:15:53.577Z,100007.88
2023-03-30T06:18:28.711Z,100002.53
2023-03-30T06:21:08.387Z,100016.28
2023-03-30T06:23:52.920Z,100033.28
2023-03-30T06:26:23.657Z,100036.88
2023-03-30T06:28:56.425Z,100010.44
2023-03-30T06:31:24.265Z,100028.47
2023-03-30T06:34:09.065Z,100017.47
2023-03-30T06:36:44.799Z,100025.28
2023-03-30T06:39:15.449Z,100034.03
2023-03-30T06:41:43.263Z,100049.34
2023-03-30T06:44:27.207Z,100066.97
2023-03-30T06:46:55.120Z,100060.66
2023-03-30T06:49:22.953Z,100018.41
2023-03-30T06:52:09.278Z,100025.69
2023-03-30T06:54:37.896Z,99993.63
2023-03-30T06:57:12.890Z,99984.41
2023-03-30T06:59:42.706Z,99998.88
2023-03-30T07:02:23.511Z,99997.44
2023-03-30T07:05:13.169Z,100011.31
2023-03-30T07:08:05.151Z,100021.19
2023-03-30T07:10:34.431Z,100029.34
2023-03-30T07:13:04.352Z,100025.59
2023-03-30T07:15:35.824Z,100029.13
2023-03-30T07:18:04.663Z,100043.22
2023-03-30T07:20:32.494Z,100045.03
2023-03-30T07:23:14.938Z,100069.34
2023-03-30T07:25:46.959Z,100073.88
2023-03-30T07:28:40.477Z,100061.69
2023-03-30T07:31:13.802Z,100058.84
2023-03-30T07:33:43.608Z,100060.66
2023-03-30T07:36:15.790Z,100049.84
2023-03-30T07:38:43.776Z,100054.22
2023-03-30T07:41:15.137Z,100053.78
2023-03-30T07:43:46.882Z,100043.97
2023-03-30T07:46:14.865Z,100043.91
2023-03-30T07:48:46.942Z,100046.59
2023-03-30T07:51:15.936Z,100048.31
2023-03-30T07:54:00.442Z,100052.13
2023-03-30T07:56:40.083Z,100053.56
2023-03-30T07:59:11.985Z,100037.69
2023-03-30T08:01:42.804Z,100023.31
2023-03-30T08:04:32.159Z,99991.22
2023-03-30T08:07:02.806Z,99982.38
2023-03-30T08:09:30.905Z,99988.63
2023-03-30T08:11:59.832Z,99983.06
2023-03-30T08:14:27.828Z,99984.69
2023-03-30T08:16:59.554Z,99989.13
2023-03-30T08:19:28.489Z,100010.06
2023-03-30T08:21:56.973Z,100004.41
2023-03-30T08:24:24.816Z,99986.09
2023-03-30T08:26:53.008Z,99986.59
2023-03-30T08:29:21.686Z,100007.53
2023-03-30T08:31:51.956Z,100005.13
2023-03-30T08:34:19.932Z,99997.00
2023-03-30T08:36:47.622Z,99998.91
2023-03-30T08:39:15.827Z,99999.16
2023-03-30T08:42:09.891Z,99990.31
2023-03-30T08:44:42.988Z,99990.19
2023-03-30T08:47:17.833Z,99998.97
2023-03-30T08:50:16.460Z,99997.72
2023-03-30T08:52:45.614Z,99999.56
2023-03-30T08:55:53.481Z,100001.75
2023-03-30T08:58:42.083Z,100017.97
2023-03-30T09:01:54.201Z,100045.47
2023-03-30T09:05:08.056Z,100047.66
2023-03-30T09:07:57.717Z,100066.66
2023-03-30T09:10:32.346Z,100067.50
2023-03-30T09:13:07.191Z,100062.81
2023-03-30T09:15:51.769Z,100086.28
2023-03-30T09:18:32.939Z,100072.34
2023-03-30T09:21:06.957Z,100065.56
2023-03-30T09:23:36.155Z,100059.22
2023-03-30T09:26:34.663Z,100076.50
2023-03-30T09:29:19.895Z,100084.59
2023-03-30T09:32:32.029Z,100074.69
2023-03-30T09:35:14.830Z,100048.53
2023-03-30T09:37:43.203Z,100006.66
2023-03-30T09:40:46.228Z,100010.38
2023-03-30T09:43:23.962Z,100003.50
2023-03-30T09:45:52.546Z,100011.25
2023-03-30T09:48:20.466Z,100032.94
2023-03-30T09:50:50.517Z,100024.63
2023-03-30T09:53:29.249Z,100008.22
2023-03-30T09:56:17.591Z,100001.13
2023-03-30T09:58:47.287Z,100006.78
2023-03-30T10:01:20.878Z,100007.47
2023-03-30T10:04:19.381Z,100011.09
2023-03-30T10:06:50.139Z,100005.63
2023-03-30T10:09:23.780Z,100008.09
2023-03-30T10:11:55.630Z,100003.38
2023-03-30T10:14:33.864Z,100012.53
2023-03-30T10:17:06.238Z,99993.03
2023-03-30T10:19:38.018Z,100007.25
2023-03-30T10:22:19.375Z,100001.22
2023-03-30T10:24:57.142Z,99989.19
2023-03-30T10:27:37.984Z,99990.06
2023-03-30T10:30:28.327Z,99999.31
2023-03-30T10:33:03.701Z,99992.84
2023-03-30T10:35:37.536Z,99986.81
2023-03-30T10:38:08.326Z,99991.78
2023-03-30T10:40:42.736Z,99989.50
2023-03-30T10:43:26.114Z,99997.56
2023-03-30T10:46:09.065Z,99977.63
2023-03-30T10:49:16.091Z,99972.44
2023-03-30T10:52:52.165Z,99971.25
2023-03-30T10:55:52.788Z,99974.78
2023-03-30T10:58:56.373Z,99992.56
2023-03-30T11:01:47.988Z,99993.44
2023-03-30T11:04:30.142Z,99987.19
2023-03-30T11:07:04.028Z,99986.13
2023-03-30T11:09:40.148Z,99997.28
2023-03-30T11:12:17.578Z,100011.19
2023-03-30T11:15:18.113Z,100008.25
2023-03-30T11:18:09.356Z,100007.72
2023-03-30T11:20:51.549Z,100004.44
2023-03-30T11:23:34.728Z,99996.69
2023-03-30T11:26:12.711Z,100007.97
2023-03-30T11:28:57.079Z,100009.34
2023-03-30T11:31:57.558Z,100004.50
2023-03-30T11:35:01.111Z,100030.56
2023-03-30T11:38:12.954Z,100013.41
2023-03-30T11:40:44.848Z,99997.59
2023-03-30T11:43:17.780Z,100004.69
2023-03-30T11:46:03.802Z,100009.53
2023-03-30T11:49:19.942Z,100003.38
2023-03-30T11:52:29.408Z,99995.44
2023-03-30T11:55:39.187Z,99988.22
2023-03-30T11:58:27.536Z,99991.75
2023-03-30T12:01:21.452Z,99992.75
2023-03-30T12:04:28.094Z,99986.16
2023-03-30T12:07:01.709Z,99994.25
2023-03-30T12:09:44.513Z,99984.72
2023-03-30T12:12:41.433Z,99979.22
2023-03-30T12:15:15.920Z,99979.63
2023-03-30T12:17:54.508Z,99981.00
2023-03-30T12:21:14.416Z,99978.94
2023-03-30T12:24:10.031Z,99981.28
2023-03-30T12:26:51.687Z,99964.22
2023-03-30T12:32:30.435Z,99962.78
2023-03-30T12:35:00.948Z,99940.59
2023-03-30T12:37:48.102Z,99955.03
2023-03-30T12:40:26.111Z,99958.06
2023-03-30T12:43:16.144Z,99952.19
2023-03-30T12:46:06.046Z,99978.66
2023-03-30T12:48:50.487Z,99960.44
2023-03-30T12:51:40.541Z,99956.03
2023-03-30T12:54:42.453Z,99964.97
2023-03-30T12:57:52.597Z,99958.06
2023-03-30T13:00:26.215Z,99953.78
2023-03-30T13:03:22.854Z,99957.72
2023-03-30T13:05:55.137Z,99956.66
2023-03-30T13:08:41.924Z,99962.09
2023-03-30T13:11:22.520Z,99959.91
2023-03-30T13:14:14.533Z,99953.41
2023-03-30T13:16:47.758Z,99949.41
2023-03-30T13:19:41.871Z,99956.16
2023-03-30T13:22:12.783Z,99954.41
2023-03-30T13:24:53.391Z,99943.28
2023-03-30T13:27:35.196Z,99948.25
2023-03-30T13:30:10.274Z,99938.34
2023-03-30T13:33:16.776Z,99941.28
2023-03-30T13:36:16.448Z,99932.59
2023-03-30T13:38:59.209Z,99950.13
2023-03-30T13:41:43.477Z,99934.09
2023-03-30T13:44:26.344Z,99948.22
2023-03-30T13:47:11.613Z,99951.91
2023-03-30T13:50:31.367Z,99932.78
2023-03-30T13:53:10.678Z,99950.44
2023-03-30T13:55:50.385Z,99928.88
2023-03-30T13:58:31.677Z,99940.00
2023-03-30T14:01:13.351Z,99935.59
2023-03-30T14:03:58.882Z,99918.41
2023-03-30T14:06:32.584Z,99935.19
2023-03-30T14:09:07.577Z,99933.13
2023-03-30T14:11:54.908Z,99931.41
2023-03-30T14:14:34.552Z,99925.75
2023-03-30T14:17:32.059Z,99924.28
2023-03-30T14:20:06.088Z,99933.03
2023-03-30T14:22:41.422Z,99925.31
2023-03-30T14:25:26.507Z,99946.66
2023-03-30T14:28:01.956Z,99934.00
2023-03-30T14:30:34.846Z,99969.19
2023-03-30T14:33:12.249Z,99954.59
2023-03-30T14:35:45.851Z,99976.19
2023-03-30T14:38:39.150Z,99969.94
2023-03-30T14:41:23.255Z,99974.56
2023-03-30T14:44:07.975Z,99958.59
2023-03-30T14:46:46.713Z,99971.56
2023-03-30T14:49:32.290Z,99966.88
2023-03-30T14:52:17.292Z,99971.84
2023-03-30T14:55:01.947Z,99964.59
2023-03-30T14:57:38.242Z,99966.31
2023-03-30T15:00:21.598Z,99962.00
2023-03-30T15:03:00.667Z,99966.66
2023-03-30T15:05:41.583Z,99966.53
2023-03-30T15:08:27.298Z,99975.59
2023-03-30T15:11:05.078Z,99974.97
2023-03-30T15:13:41.961Z,99975.72
2023-03-30T15:16:28.888Z,99971.91
2023-03-30T15:19:12.201Z,99969.88
2023-03-30T15:21:40.732Z,99970.50
2023-03-30T15:24:14.781Z,99972.94
2023-03-30T15:26:49.092Z,99975.63
2023-03-30T15:29:20.227Z,99967.66
2023-03-30T15:32:07.529Z,99976.09
2023-03-30T15:34:35.397Z,99966.16
2023-03-30T15:37:03.570Z,99972.03
2023-03-30T15:39:36.533Z,99965.03
2023-03-30T15:42:09.290Z,99959.66
2023-03-30T15:44:41.809Z,99971.53
2023-03-30T15:47:19.881Z,99963.69
2023-03-30T15:49:51.349Z,99960.72
2023-03-30T15:52:34.215Z,99960.44
2023-03-30T15:55:18.248Z,99957.34
2023-03-30T15:57:49.078Z,99954.66
2023-03-30T16:00:33.026Z,99959.91
2023-03-30T16:03:01.909Z,99953.88
2023-03-30T16:05:36.348Z,99957.56
2023-03-30T16:08:05.677Z,99955.22
2023-03-30T16:10:38.537Z,99962.22
2023-03-30T16:13:07.047Z,99971.38
2023-03-30T16:15:35.035Z,99972.13
2023-03-30T16:18:05.401Z,99976.63
2023-03-30T16:20:33.641Z,99978.25
2023-03-30T16:23:01.506Z,99980.31
2023-03-30T16:28:01.841Z,99995.50
2023-03-30T16:30:53.633Z,99993.69
2023-03-30T16:33:21.415Z,99990.22
2023-03-30T16:36:01.355Z,99985.69
2023-03-30T16:38:29.234Z,99983.13
2023-03-30T16:40:59.814Z,99972.69
2023-03-30T16:43:27.705Z,99971.31
2023-03-30T16:45:55.890Z,99969.47
2023-03-30T16:48:24.338Z,99977.69
2023-03-30T16:50:55.037Z,99968.75
2023-03-30T16:53:23.701Z,99979.59
2023-03-30T16:55:51.592Z,99972.63
2023-03-30T16:58:19.730Z,99970.16
2023-03-30T17:00:50.977Z,99982.56
2023-03-30T17:03:20.395Z,99974.56
2023-03-30T17:05:48.660Z,99970.03
2023-03-30T17:08:28.646Z,99970.16
2023-03-30T17:11:05.332Z,99971.13
2023-03-30T17:13:33.713Z,99977.59
2023-03-30T17:16:03.406Z,99975.88
2023-03-30T17:18:31.598Z,99970.75
2023-03-30T17:21:01.400Z,99981.25
2023-03-30T17:23:32.216Z,99973.53
2023-03-30T17:26:04.400Z,99986.22
2023-03-30T17:28:35.489Z,99978.13
2023-03-30T17:31:09.140Z,99988.38
2023-03-30T17:33:38.434Z,99987.59
2023-03-30T17:36:28.105Z,99989.78
2023-03-30T17:39:01.667Z,99996.47
2023-03-30T17:41:29.754Z,100002.28
2023-03-30T17:43:57.497Z,99994.22
2023-03-30T17:46:25.413Z,99983.78
2023-03-30T17:48:53.695Z,100000.66
2023-03-30T17:51:21.545Z,100000.78
2023-03-30T17:53:49.912Z,99994.66
2023-03-30T17:56:18.022Z,99995.53
2023-03-30T17:58:45.865Z,99999.28
2023-03-30T18:01:13.875Z,100001.13
2023-03-30T18:03:44.741Z,100002.41
2023-03-30T18:06:13.126Z,100013.38
2023-03-30T18:08:43.030Z,100012.84
2023-03-30T18:11:11.237Z,100009.63
2023-03-30T18:13:38.997Z,100016.09
2023-03-30T18:16:07.168Z,100017.28
2023-03-30T18:18:35.137Z,100010.25
2023-03-30T18:21:05.565Z,99998.44
2023-03-30T18:23:34.971Z,100005.00
2023-03-30T18:26:10.269Z,100002.72
2023-03-30T18:28:43.586Z,100006.25
2023-03-30T18:31:12.413Z,100014.31
2023-03-30T18:33:40.294Z,100012.78
2023-03-30T18:36:12.968Z,100015.47
2023-03-30T18:38:42.086Z,100024.69
2023-03-30T18:41:13.348Z,100012.44
2023-03-30T18:43:43.236Z,100016.22
2023-03-30T18:46:14.445Z,100027.63
2023-03-30T18:48:42.379Z,100014.56
2023-03-30T18:51:13.112Z,100034.47
2023-03-30T18:53:40.992Z,100021.34
2023-03-30T18:56:12.071Z,100026.41
2023-03-30T18:58:42.485Z,100031.00
2023-03-30T19:01:12.842Z,100023.91
2023-03-30T19:03:44.799Z,100022.31
2023-03-30T19:06:24.520Z,100024.03
2023-03-30T19:08:52.467Z,100031.66
2023-03-30T19:11:24.431Z,100025.72
2023-03-30T19:13:52.998Z,100020.66
2023-03-30T19:16:22.330Z,100029.31
2023-03-30T19:18:50.485Z,100028.75
2023-03-30T19:21:18.994Z,100028.22
2023-03-30T19:23:47.224Z,100022.28
2023-03-30T19:26:15.159Z,100016.66
2023-03-30T19:28:45.632Z,100023.84
2023-03-30T19:31:15.875Z,100032.94
2023-03-30T19:33:44.164Z,100029.84
2023-03-30T19:36:15.492Z,100015.22
2023-03-30T19:38:44.186Z,100019.72
2023-03-30T19:41:12.246Z,100027.00
2023-03-30T19:43:40.081Z,100038.59
2023-03-30T19:46:08.781Z,100036.78
2023-03-30T19:48:36.887Z,100014.09
2023-03-30T19:51:05.099Z,100026.31
2023-03-30T19:53:34.309Z,100031.13
2023-03-30T19:56:02.042Z,100026.06
2023-03-30T19:58:30.037Z,100010.63
2023-03-30T20:01:02.984Z,100020.41
2023-03-30T20:03:31.167Z,100003.94
2023-03-30T20:05:59.224Z,100005.22
2023-03-30T20:08:29.588Z,100004.53
2023-03-30T20:10:59.748Z,100010.47
2023-03-30T20:13:27.895Z,100007.09
2023-03-30T20:15:57.384Z,99999.34
2023-03-30T20:18:25.275Z,99997.63
2023-03-30T20:20:53.260Z,99993.13
2023-03-30T20:23:21.104Z,99990.34
2023-03-30T20:25:50.371Z,99997.44
2023-03-30T20:28:18.159Z,99993.00
2023-03-30T20:30:46.955Z,99990.25
2023-03-30T20:33:15.152Z,99993.91
2023-03-30T20:35:43.214Z,99994.84
2023-03-30T20:38:11.033Z,99993.13
2023-03-30T20:40:39.013Z,99995.50
2023-03-30T20:43:10.308Z,99987.47
2023-03-30T20:45:48.430Z,99992.94
2023-03-30T20:48:26.949Z,99991.41
2023-03-30T20:50:56.197Z,99999.34
2023-03-30T20:53:24.906Z,99990.44
2023-03-30T20:55:52.800Z,99988.91
2023-03-30T20:58:22.461Z,99988.16
2023-03-30T21:00:52.112Z,99984.59
2023-03-30T21:03:21.468Z,99978.47
2023-03-30T21:06:04.975Z,99971.38
2023-03-30T21:08:33.848Z,99962.66
2023-03-30T21:11:02.063Z,99950.31
2023-03-30T21:13:30.492Z,99957.41
2023-03-30T21:16:01.082Z,99957.41
2023-03-30T21:18:29.098Z,99961.91
2023-03-30T21:20:57.612Z,99967.72
2023-03-30T21:23:26.810Z,99970.34
2023-03-30T21:26:06.071Z,99962.31
2023-03-30T21:28:35.057Z,99969.38
2023-03-30T21:31:08.328Z,99999.06
2023-03-30T21:33:38.421Z,100018.09
2023-03-30T21:36:07.362Z,100000.69
2023-03-30T21:38:36.224Z,100007.97
2023-03-30T21:41:12.346Z,100020.31
2023-03-30T21:43:44.126Z,100006.34
2023-03-30T21:46:18.961Z,100016.09
2023-03-30T21:48:49.044Z,99998.69
2023-03-30T21:51:27.930Z,99995.41
2023-03-30T21:53:56.926Z,99979.59
2023-03-30T21:56:29.063Z,99968.06
2023-03-30T21:58:57.592Z,99946.06
2023-03-30T22:01:26.028Z,99954.19
2023-03-30T22:03:55.700Z,99945.47
2023-03-30T22:06:24.430Z,99940.31
2023-03-30T22:08:52.473Z,99952.66
2023-03-30T22:11:24.000Z,99936.69
2023-03-30T22:13:53.572Z,99929.66
2023-03-30T22:16:34.901Z,99917.47
2023-03-30T22:19:05.085Z,99916.78
2023-03-30T22:21:36.079Z,99915.53
2023-03-30T22:24:06.307Z,99918.31
2023-03-30T22:26:35.932Z,99919.38
2023-03-30T22:29:05.090Z,99910.88
2023-03-30T22:31:33.474Z,99911.63
2023-03-30T22:34:21.545Z,99895.53
2023-03-30T22:36:49.356Z,99893.63
2023-03-30T22:39:17.150Z,99880.06
2023-03-30T22:41:45.077Z,99879.09
2023-03-30T22:44:13.075Z,99871.16
2023-03-30T22:46:40.870Z,99863.22
2023-03-30T22:49:09.728Z,99858.59
2023-03-30T22:51:38.234Z,99861.97
2023-03-30T22:54:06.352Z,99864.44
2023-03-30T22:56:34.184Z,99858.88
2023-03-30T22:59:02.023Z,99864.25
2023-03-30T23:01:32.381Z,99846.75
2023-03-30T23:04:02.041Z,99850.72
2023-03-30T23:06:31.348Z,99854.09
2023-03-30T23:09:02.605Z,99854.94
2023-03-30T23:11:31.984Z,99854.94
2023-03-30T23:14:06.375Z,99861.84
2023-03-30T23:16:35.967Z,99822.66
2023-03-30T23:19:06.258Z,99827.84
2023-03-30T23:21:34.627Z,99829.66
2023-03-30T23:24:12.284Z,99825.28
2023-03-30T23:26:40.441Z,99823.56
2023-03-30T23:29:08.498Z,99834.75
2023-03-30T23:31:36.650Z,99833.13
2023-03-30T23:34:04.630Z,99823.00
2023-03-30T23:36:32.427Z,99819.25
2023-03-30T23:39:00.619Z,99812.28
2023-03-30T23:41:29.135Z,99816.47
2023-03-30T23:43:57.149Z,99792.56
2023-03-30T23:46:25.527Z,99788.91
2023-03-30T23:48:53.569Z,99789.66
2023-03-30T23:51:21.686Z,99786.91
2023-03-30T23:53:54.383Z,99800.00
2023-03-30T23:56:27.841Z,99803.19
2023-03-30T23:58:56.756Z,99786.69
